Time;durP1;ratioP1;P1;durP2;ratioP2;P2;SDS_P1;SDS_P2;PMS_P1;PMS_P2;Temp;Humidity;BMP_temperature;BMP_pressure;BME280_temperature;BME280_humidity;BME280_pressure;Samples;Min_cycle;Max_cycle;Signal;HPM_P1;HPM_P2
2022/08/06 00:00:30;;;;;;;1.85;0.60;;;;;;;15.22;80.23;102187.97;20960615;28;20086;-67
2022/08/06 00:10:53;;;;;;;2.42;0.80;;;;;;;15.37;79.26;102196.69;20969239;28;20056;-65
2022/08/06 00:21:14;;;;;;;2.90;0.80;;;;;;;15.25;80.49;102214.09;20970740;28;20056;-65
2022/08/06 00:31:56;;;;;;;2.03;1.05;;;;;;;14.78;82.30;102223.97;20951826;28;20037;-66
2022/08/06 00:42:18;;;;;;;4.22;1.00;;;;;;;14.84;81.67;102234.09;20967015;28;20063;-64
2022/08/06 00:52:39;;;;;;;1.90;0.88;;;;;;;14.66;82.92;102237.81;20968043;28;20130;-66
2022/08/06 01:03:01;;;;;;;;;;;;;;;14.76;81.90;102259.94;20965321;28;20058;-65
2022/08/06 01:13:22;;;;;;;1.50;1.10;;;;;;;14.69;82.62;102271.75;20962504;28;20407;-68
2022/08/06 01:24:42;;;;;;;2.55;1.20;;;;;;;14.52;82.77;102271.91;20957593;28;20052;-65
2022/08/06 01:35:14;;;;;;;2.57;1.20;;;;;;;14.31;83.46;102279.28;20974119;28;20671;-65
2022/08/06 01:45:59;;;;;;;3.33;1.33;;;;;;;13.90;86.18;102278.09;20952418;28;20481;-65
2022/08/06 01:56:22;;;;;;;1.65;1.30;;;;;;;14.21;84.96;102288.63;20952740;28;20345;-64
2022/08/06 02:07:08;;;;;;;1.60;1.35;;;;;;;13.75;86.40;102292.06;20955114;28;20428;-65
2022/08/06 02:17:52;;;;;;;1.50;1.20;;;;;;;13.66;87.01;102287.31;20958793;28;20420;-67
2022/08/06 02:28:27;;;;;;;4.88;1.60;;;;;;;13.82;86.80;102301.28;20954772;28;20045;-68
2022/08/06 02:38:58;;;;;;;2.95;1.45;;;;;;;13.47;88.50;102299.69;20955681;28;20040;-67
2022/08/06 02:49:24;;;;;;;3.75;1.60;;;;;;;13.68;88.51;102314.28;20960699;28;20040;-67
2022/08/06 02:59:53;;;;;;;2.25;1.50;;;;;;;13.49;88.59;102305.72;20951458;28;20584;-66
2022/08/06 03:10:19;;;;;;;3.08;1.75;;;;;;;13.49;87.94;102313.56;20938050;28;20135;-66
2022/08/06 03:20:51;;;;;;;2.40;1.48;;;;;;;13.50;87.60;102315.25;20965025;28;20140;-66
2022/08/06 03:31:14;;;;;;;3.05;1.90;;;;;;;13.30;89.18;102323.31;20968520;28;20103;-66
2022/08/06 03:41:38;;;;;;;2.05;1.75;;;;;;;13.34;89.77;102330.09;20969363;28;20052;-67
2022/08/06 03:52:31;;;;;;;3.67;1.70;;;;;;;13.07;91.08;102342.00;20985729;28;20045;-66
2022/08/06 04:02:55;;;;;;;3.55;2.30;;;;;;;12.78;92.41;102342.56;20957470;28;20052;-66
2022/08/06 04:13:20;;;;;;;3.72;1.90;;;;;;;13.34;88.58;102361.53;20967908;28;20050;-67
2022/08/06 04:24:02;;;;;;;6.80;2.10;;;;;;;13.20;89.29;102369.25;20956729;28;20056;-67
2022/08/06 04:34:25;;;;;;;4.68;1.65;;;;;;;12.93;90.92;102383.72;20981415;28;20359;-66
2022/08/06 04:44:50;;;;;;;2.90;1.65;;;;;;;13.25;89.48;102389.94;20982380;28;20032;-68
2022/08/06 04:55:21;;;;;;;3.63;2.03;;;;;;;13.40;88.71;102397.88;20949629;28;20162;-67
2022/08/06 05:06:00;;;;;;;2.30;2.05;;;;;;;13.29;89.37;102410.66;20951894;28;20036;-66
2022/08/06 05:16:25;;;;;;;2.55;1.65;;;;;;;13.35;89.02;102414.75;20961799;28;20044;-67
2022/08/06 05:26:48;;;;;;;6.25;1.88;;;;;;;13.74;86.87;102424.03;20949870;28;20044;-67
2022/08/06 05:37:10;;;;;;;2.97;1.70;;;;;;;13.91;86.70;102426.63;20956683;28;20041;-66
2022/08/06 05:47:37;;;;;;;5.55;1.80;;;;;;;14.42;85.29;102439.56;20962208;28;20056;-67
2022/08/06 05:58:26;;;;;;;3.45;1.55;;;;;;;14.61;83.48;102451.63;20958092;28;20055;-64
2022/08/06 06:08:49;;;;;;;2.70;1.38;;;;;;;14.86;81.96;102458.03;20973784;28;20440;-67
2022/08/06 06:19:43;;;;;;;20.98;1.83;;;;;;;15.52;80.15;102469.97;20958062;28;20094;-66
2022/08/06 06:30:20;;;;;;;3.58;1.05;;;;;;;15.66;79.30;102473.44;20970222;28;20066;-69
2022/08/06 06:41:16;;;;;;;1.27;0.90;;;;;;;16.00;78.08;102481.03;20968564;28;20055;-67
2022/08/06 06:51:49;;;;;;;1.17;1.03;;;;;;;16.63;75.50;102485.81;20951941;28;20151;-65
2022/08/06 07:02:25;;;;;;;2.22;0.73;;;;;;;17.11;74.35;102498.47;20951336;28;20295;-66
2022/08/06 07:12:50;;;;;;;3.03;0.63;;;;;;;17.28;73.47;102511.41;20952549;28;20051;-65
2022/08/06 07:23:16;;;;;;;1.98;0.65;;;;;;;17.61;72.48;102519.78;20936901;28;20072;-65
2022/08/06 07:33:58;;;;;;;2.03;0.50;;;;;;;17.72;71.44;102519.88;20953440;28;20052;-63
2022/08/06 07:44:26;;;;;;;1.77;0.60;;;;;;;17.85;69.99;102520.75;20937189;28;20072;-64
2022/08/06 07:54:50;;;;;;;0.65;0.40;;;;;;;17.86;70.89;102519.81;20946640;28;20124;-65
2022/08/06 08:16:00;;;;;;;2.85;0.38;;;;;;;18.53;66.16;102531.75;20978377;28;20052;-64
2022/08/06 08:26:22;;;;;;;2.50;0.43;;;;;;;18.64;65.59;102538.91;20964950;28;20040;-62
2022/08/06 08:36:45;;;;;;;3.05;0.80;;;;;;;18.79;62.46;102541.28;20954504;28;20040;-66
2022/08/06 08:47:09;;;;;;;0.57;0.22;;;;;;;18.49;64.82;102556.66;20954235;28;20041;-64
2022/08/06 08:57:33;;;;;;;4.65;0.57;;;;;;;18.99;64.08;102561.03;20954180;28;20513;-65
2022/08/06 09:08:17;;;;;;;1.10;0.43;;;;;;;19.47;61.44;102561.81;20954677;28;20045;-65
2022/08/06 09:18:39;;;;;;;3.03;0.40;;;;;;;19.21;60.59;102559.38;20946220;28;20047;-65
2022/08/06 09:29:01;;;;;;;2.22;0.30;;;;;;;19.32;58.67;102562.09;20945297;28;20413;-65
2022/08/06 09:39:45;;;;;;;2.53;0.30;;;;;;;19.96;56.82;102565.13;20952767;28;20535;-64
2022/08/06 09:50:42;;;;;;;1.95;0.30;;;;;;;19.83;53.71;102580.25;20956730;28;20040;-65
2022/08/06 10:01:16;;;;;;;4.82;0.40;;;;;;;20.01;55.48;102581.53;20947200;28;20052;-65
2022/08/06 10:11:43;;;;;;;1.30;0.20;;;;;;;20.02;57.56;102577.09;20954639;28;20048;-66
2022/08/06 10:22:13;;;;;;;3.20;0.35;;;;;;;20.20;56.21;102575.69;20954191;28;20052;-65
2022/08/06 10:32:48;;;;;;;1.13;0.45;;;;;;;20.73;55.13;102567.91;20948422;28;20033;-66
2022/08/06 10:43:11;;;;;;;3.08;0.50;;;;;;;21.51;50.74;102559.66;20936841;28;20071;-66
2022/08/06 10:53:35;;;;;;;2.53;0.30;;;;;;;21.54;53.72;102556.75;20959361;28;20087;-65
2022/08/06 11:04:46;;;;;;;1.13;0.40;;;;;;;20.60;51.83;102560.06;20960491;28;20041;-65
2022/08/06 11:15:09;;;;;;;1.25;0.22;;;;;;;20.26;55.90;102551.34;20950684;28;20072;-63
2022/08/06 11:25:45;;;;;;;2.45;0.43;;;;;;;20.14;55.91;102568.19;20947610;28;20094;-63
2022/08/06 11:36:15;;;;;;;0.57;0.30;;;;;;;20.03;58.11;102576.13;20954668;28;20048;-63
2022/08/06 11:46:41;;;;;;;1.80;0.47;;;;;;;20.57;57.16;102568.25;20997304;28;20052;-63
2022/08/06 11:57:15;;;;;;;0.30;0.20;;;;;;;20.53;54.31;102572.09;20968126;28;20064;-63
2022/08/06 12:08:19;;;;;;;2.60;0.40;;;;;;;21.74;51.03;102566.59;20963312;28;20094;-64
2022/08/06 12:19:03;;;;;;;1.27;0.50;;;;;;;21.26;54.35;102556.50;20973141;28;20051;-63
2022/08/06 12:29:29;;;;;;;3.83;0.47;;;;;;;20.63;57.79;102573.06;20951042;28;20051;-64
2022/08/06 12:40:26;;;;;;;1.63;0.52;;;;;;;20.38;59.35;102565.34;20957055;28;20075;-64
2022/08/06 12:50:48;;;;;;;2.03;0.73;;;;;;;19.99;58.52;102566.72;20955127;28;20116;-64
2022/08/06 13:01:17;;;;;;;6.10;1.10;;;;;;;20.03;59.57;102560.25;20950340;28;20053;-64
2022/08/06 13:11:59;;;;;;;16.58;3.90;;;;;;;20.30;58.76;102556.31;20941392;28;20059;-63
2022/08/06 13:22:22;;;;;;;4.50;0.82;;;;;;;20.35;58.31;102562.09;20953154;28;20071;-64
2022/08/06 13:32:44;;;;;;;3.45;1.10;;;;;;;20.15;57.50;102546.03;20949224;28;20055;-64
2022/08/06 13:43:10;;;;;;;5.20;1.70;;;;;;;20.30;58.03;102543.06;20949528;28;20052;-64
2022/08/06 13:53:51;;;;;;;3.72;1.67;;;;;;;20.29;56.99;102545.81;20952542;28;20816;-64
2022/08/06 14:04:21;;;;;;;2.58;1.40;;;;;;;20.70;55.05;102541.63;20946793;28;20527;-64
2022/08/06 14:14:46;;;;;;;2.42;1.38;;;;;;;21.02;58.08;102547.88;20969960;28;20044;-63
2022/08/06 14:25:08;;;;;;;2.80;1.67;;;;;;;20.96;56.18;102543.06;20952775;28;20043;-63
2022/08/06 14:35:30;;;;;;;3.22;2.33;;;;;;;20.66;58.90;102541.03;20943000;28;20059;-64
2022/08/06 14:46:06;;;;;;;7.38;3.03;;;;;;;20.44;60.02;102535.72;20951803;28;20056;-62
2022/08/06 14:56:27;;;;;;;5.43;3.20;;;;;;;20.48;59.81;102531.00;20958408;28;20048;-65
2022/08/06 15:06:54;;;;;;;4.93;3.40;;;;;;;20.62;56.86;102518.38;20955501;28;20044;-69
2022/08/06 15:17:19;;;;;;;5.47;3.90;;;;;;;20.56;56.71;102518.84;20948018;28;20079;-67
2022/08/06 15:28:01;;;;;;;5.88;4.10;;;;;;;20.48;55.67;102508.03;20965470;28;20409;-70
2022/08/06 15:38:25;;;;;;;8.02;4.28;;;;;;;20.48;55.25;102521.28;20962138;28;20060;-66
2022/08/06 15:48:47;;;;;;;5.70;4.15;;;;;;;20.76;54.64;102520.75;20949055;28;20052;-67
2022/08/06 15:59:16;;;;;;;5.15;3.83;;;;;;;20.71;55.29;102517.63;20954455;28;20732;-67
2022/08/06 16:09:44;;;;;;;6.35;4.25;;;;;;;20.88;54.42;102508.38;20944055;28;20398;-66
2022/08/06 16:20:25;;;;;;;5.45;4.57;;;;;;;20.63;55.10;102509.47;20961021;28;20405;-66
2022/08/06 16:30:54;;;;;;;7.78;5.40;;;;;;;20.52;54.82;102506.78;20942772;28;20049;-65
2022/08/06 16:41:35;;;;;;;6.10;4.40;;;;;;;21.37;52.85;102506.88;20937732;28;20501;-66
2022/08/06 16:52:16;;;;;;;7.57;4.50;;;;;;;21.40;53.88;102498.66;20957327;28;20461;-65
2022/08/06 17:02:58;;;;;;;8.77;4.97;;;;;;;20.81;56.90;102497.38;20947674;28;20037;-64
2022/08/06 17:13:28;;;;;;;6.20;5.30;;;;;;;20.33;57.62;102504.88;20950658;28;20044;-64
2022/08/06 17:24:01;;;;;;;9.38;5.68;;;;;;;20.43;57.98;102507.53;20957803;28;20098;-63
2022/08/06 17:34:23;;;;;;;10.18;6.18;;;;;;;19.94;59.99;102494.72;20989508;28;20048;-64
2022/08/06 17:44:51;;;;;;;7.93;6.10;;;;;;;20.31;59.62;102501.50;20954546;28;20453;-64
2022/08/06 17:55:15;;;;;;;7.68;5.88;;;;;;;20.21;61.78;102500.56;20950845;28;20055;-61
2022/08/06 18:05:40;;;;;;;7.40;5.88;;;;;;;19.81;63.35;102509.84;20953128;28;20040;-63
2022/08/06 18:16:03;;;;;;;7.68;5.95;;;;;;;19.57;64.24;102514.34;20970117;28;20079;-62
2022/08/06 18:26:30;;;;;;;10.27;6.38;;;;;;;19.27;65.14;102521.09;20935959;28;20041;-60
2022/08/06 18:36:53;;;;;;;9.52;6.30;;;;;;;19.10;64.97;102530.19;20953685;28;20178;-62
2022/08/06 18:47:17;;;;;;;9.93;6.30;;;;;;;18.92;65.71;102536.81;20947783;28;20045;-61
2022/08/06 18:57:42;;;;;;;12.00;6.60;;;;;;;18.95;65.80;102536.59;20933977;28;20119;-61
2022/08/06 19:08:24;;;;;;;11.90;6.28;;;;;;;18.59;66.87;102547.16;20954721;28;20053;-62
2022/08/06 19:18:50;;;;;;;9.13;6.38;;;;;;;18.29;67.29;102560.81;20933779;28;20074;-62
2022/08/06 19:29:19;;;;;;;11.27;6.68;;;;;;;18.17;68.51;102566.91;20941439;28;20598;-62
2022/08/06 19:50:43;;;;;;;10.48;6.32;;;;;;;17.84;69.05;102564.75;20961523;28;20611;-62
2022/08/06 20:01:11;;;;;;;10.75;7.40;;;;;;;17.90;69.49;102574.06;20947479;28;20095;-62
2022/08/06 20:11:53;;;;;;;8.05;6.03;;;;;;;17.90;69.43;102563.50;20950736;28;20048;-61
2022/08/06 20:22:27;;;;;;;10.68;6.30;;;;;;;17.55;71.04;102572.91;20957180;28;20131;-62
2022/08/06 20:32:49;;;;;;;10.32;7.05;;;;;;;17.52;70.69;102570.47;20937970;28;20047;-62
2022/08/06 20:43:17;;;;;;;9.32;6.88;;;;;;;17.52;71.98;102573.09;20951797;28;20201;-62
2022/08/06 20:53:58;;;;;;;9.93;6.60;;;;;;;17.26;71.67;102579.19;20954148;28;20099;-63
2022/08/06 21:04:37;;;;;;;11.88;6.20;;;;;;;17.25;73.00;102585.41;20948828;28;20521;-62
2022/08/06 21:15:19;;;;;;;9.13;7.53;;;;;;;17.06;73.10;102584.88;20958699;28;20111;-62
2022/08/06 21:26:00;;;;;;;10.90;7.28;;;;;;;16.81;73.79;102582.13;20962232;28;20049;-62
2022/08/06 21:36:23;;;;;;;11.20;7.65;;;;;;;16.81;75.04;102568.94;20958043;28;20082;-62
2022/08/06 21:46:49;;;;;;;10.80;7.80;;;;;;;16.75;75.03;102565.84;20965729;28;20040;-62
2022/08/06 21:57:21;;;;;;;12.75;8.77;;;;;;;16.71;76.52;102564.34;20960690;28;20105;-62
2022/08/06 22:07:45;;;;;;;13.10;8.68;;;;;;;16.58;77.70;102571.31;20971051;28;20040;-61
2022/08/06 22:18:27;;;;;;;12.63;8.65;;;;;;;16.18;78.71;102558.84;20940927;28;20049;-62
2022/08/06 22:28:49;;;;;;;14.02;8.38;;;;;;;16.13;80.19;102552.19;20951661;28;20047;-62
2022/08/06 22:39:12;;;;;;;11.38;8.10;;;;;;;15.84;81.04;102540.75;20964761;28;20048;-62
2022/08/06 22:49:35;;;;;;;14.20;10.07;;;;;;;15.99;80.98;102539.00;20958072;28;20105;-61
2022/08/06 23:00:17;;;;;;;11.90;9.30;;;;;;;15.72;82.41;102537.97;20952229;28;20048;-62
2022/08/06 23:10:40;;;;;;;12.43;8.32;;;;;;;15.62;82.96;102529.81;20955392;28;20377;-62
2022/08/06 23:21:28;;;;;;;11.27;7.70;;;;;;;15.76;83.24;102521.97;20956082;28;20048;-62
2022/08/06 23:32:09;;;;;;;11.95;8.38;;;;;;;15.38;84.59;102514.59;20950931;28;20520;-62
2022/08/06 23:42:37;;;;;;;11.73;7.80;;;;;;;15.37;84.96;102518.16;20971688;28;20044;-61
2022/08/06 23:52:58;;;;;;;10.52;7.97;;;;;;;15.30;86.34;102510.72;20974571;28;20049;-62
